Tropical Cyclones
[Index]
Main Index Home Page Stock Weather Photos Extreme Storms Discussion Storm News and Storm Chasing Reports Tropical Cyclones / Hurricanes / Typhoons Weather Data and Links Wild Fires / Bushfires Weather Observation Techniques Weather Picture Catalogue Tornado Pictures and Reports Stock Video Footage and DVDs for sale
Season 2014-2015 Tropical Cyclone NIKO Track Map
Season 2014-2015 Summaries: [BoM-AU] [JTWC-AU] [JTWC-SIO] [JTWC-SPAC] [JTWC-SH]
<<- Previous TC | JTWC 2014-2015 Season | Next TC ->>

click for intensity scale information  Lat/long Grid: Show Hide

 Date Labels: Show Hide

Joint Typhoon Warning Centre Cyclone Data

Name: NIKO

20 Jan 2015 00:00 UTC to 25 Jan 2015 00:00 UTC

    date/time    lat    long     hPa   cat  kts
2015-01-20 00   12.2   151.6W   1000         30          
2015-01-20 06   12.6   151.2W    993    1    40          
2015-01-20 12   13.2   151.0W    993    1    40          
2015-01-20 18   13.7   150.6W    993    1    40          
2015-01-21 00   14.3   150.1W    989    1    45          
2015-01-21 06   15.1   149.6W    989    1    45          
2015-01-21 12   15.7   149.2W    989    1    45          
2015-01-21 18   16.3   148.7W    989    1    45          
2015-01-22 00   17.2   148.0W    985    1    50          
2015-01-22 06   18.1   147.3W    985    1    50          
2015-01-22 12   19.3   146.5W    985    1    50          
2015-01-22 12   19.3   146.5W    985    1    50          
2015-01-22 18   20.5   146.0W    982    2    55          
2015-01-22 18   20.5   146.0W    982    2    55          
2015-01-23 00   21.6   145.7W    982    2    55          
2015-01-23 00   21.6   145.7W    982    2    55          
2015-01-23 06   22.7   145.7W    985    1    50          
2015-01-23 06   22.7   145.7W    985    1    50          
2015-01-23 12   23.8   145.7W    989    1    45          
2015-01-23 18   25.0   145.9W    993    1    40          
2015-01-24 00   26.2   146.5W    996         35          
2015-01-24 06   27.5   147.1W   1000         30          
2015-01-24 12   28.8   147.8W   1000         30          
2015-01-24 18   30.2   148.6W   1000         30          
2015-01-25 00   31.7   149.4W   1007         20          
Winds are 1-min average.

Tropical cyclone tracks developed by Michael Bath using data from the Joint Typhoon Warning Centre Best Tracks and Google Maps.


[Australian Severe Weather index] [Copyright Notice] [Email Contacts] [Search This Site] [Privacy Policy]
Document: tropical_cyclone_niko.htm Updated: 28 June 2017